»·PEaware :: SKY261 KTOA-KVNY

SKY261 :: KTOA-KVNY

FLIGHT INFORMATION

Flight Status: Arrived
Operator:
Sky High Charters
More flights by this operator :: More flights under this callsign
Pilot: Brian K. (18535)
Aircraft: Unknown
(DA62)
More flights by this aircraft type
Origin: KTOA Zamperini
United States
Destination: KVNY Van Nuys
United States
More flights between these airports :: More routes between these airports
Route: +LIMBO V64 SMO125R SMO SMO317R CANOG
File this flight plan on PilotEdge
Remarks: SCENARIO 1
Altitude:
(Current/Filed)
4,000ft
Speed:
(Current/Filed)
160kts
Departed: 09-Jan-19 07:12 PM
Arrived: 09-Jan-19 08:10 PM
Distance/Time
Traveled:
25nm/0:58
Distance/Time
To Go:
Arrived

Flight Plot

Page will automatically refresh every two minutes.

Flight plan parsing failed; only flown route is shown


Map Options




Map Legend


Flown Route
Filed Route
Departure Airport
Arrival Airport
Navaid (VOR, NDB)
Fix

Horizontal Profiles

Position Reports

Time Latitude Longitude Heading Altitude Ground
Speed
09-Jan-19 18:41 33.801601 -118.341420 218 107ft 0kts
09-Jan-19 18:42 33.801601 -118.341420 218 107ft 0kts
09-Jan-19 18:43 33.801601 -118.341420 218 107ft 0kts
09-Jan-19 18:44 33.801601 -118.341420 218 107ft 0kts
09-Jan-19 18:45 33.801601 -118.341420 218 107ft 0kts
09-Jan-19 18:46 33.801601 -118.341420 218 107ft 0kts
09-Jan-19 18:47 33.801601 -118.341420 218 107ft 0kts
09-Jan-19 18:48 33.801601 -118.341420 218 107ft 0kts
09-Jan-19 18:49 33.801601 -118.341420 218 107ft 0kts
09-Jan-19 18:49 33.801601 -118.341420 218 107ft 0kts
09-Jan-19 18:51 33.801601 -118.341420 218 107ft 0kts
09-Jan-19 18:52 33.801601 -118.341420 218 107ft 0kts
09-Jan-19 18:52 33.801601 -118.341420 218 107ft 0kts
09-Jan-19 18:53 33.801601 -118.341420 218 107ft 0kts
09-Jan-19 18:55 33.801601 -118.341420 218 107ft 0kts
09-Jan-19 18:55 33.801601 -118.341420 218 107ft 0kts
09-Jan-19 18:56 33.801601 -118.341420 218 107ft 0kts
09-Jan-19 18:58 33.801601 -118.341420 218 107ft 0kts
09-Jan-19 18:58 33.801601 -118.341420 218 107ft 0kts
09-Jan-19 18:59 33.801601 -118.341420 218 107ft 0kts
09-Jan-19 19:00 33.801601 -118.341420 218 107ft 0kts
09-Jan-19 19:01 33.801601 -118.341420 218 107ft 0kts
09-Jan-19 19:02 33.801601 -118.341420 218 107ft 0kts
09-Jan-19 19:03 33.801601 -118.341420 218 107ft 0kts
09-Jan-19 19:04 33.801279 -118.340653 129 107ft 6kts
09-Jan-19 19:05 33.800464 -118.338177 129 107ft 12kts
09-Jan-19 19:06 33.798076 -118.334308 56 107ft 10kts
09-Jan-19 19:07 33.798603 -118.333559 39 107ft 0kts
09-Jan-19 19:08 33.799064 -118.333325 36 107ft 0kts
09-Jan-19 19:09 33.799065 -118.333324 36 107ft 0kts
09-Jan-19 19:10 33.799667 -118.333004 309 107ft 6kts
09-Jan-19 19:11 33.813414 -118.352373 305 550ft 117kts
09-Jan-19 19:12 33.833754 -118.386212 305 1415ft 128kts
09-Jan-19 19:13 33.854020 -118.420608 306 2291ft 124kts
09-Jan-19 19:14 33.851332 -118.454287 186 2993ft 142kts
09-Jan-19 19:15 33.812408 -118.446380 181 3694ft 142kts
09-Jan-19 19:16 33.772478 -118.448561 179 3986ft 152kts
09-Jan-19 19:17 33.762313 -118.402190 85 3990ft 165kts
09-Jan-19 19:18 33.765909 -118.347707 87 3989ft 164kts
09-Jan-19 19:19 33.769295 -118.292961 86 3990ft 164kts
09-Jan-19 19:20 33.777576 -118.240574 34 3988ft 161kts
09-Jan-19 19:21 33.812941 -118.257308 320 3990ft 149kts
09-Jan-19 19:22 33.844384 -118.289207 316 3990ft 149kts
09-Jan-19 19:23 33.875787 -118.321652 319 3990ft 149kts
09-Jan-19 19:24 33.907278 -118.353299 320 3980ft 149kts
09-Jan-19 19:25 33.938137 -118.384299 321 3980ft 149kts
09-Jan-19 19:26 33.969918 -118.416286 321 3980ft 151kts
09-Jan-19 19:27 34.002723 -118.449275 321 3982ft 156kts
09-Jan-19 19:28 34.039834 -118.475881 333 3982ft 156kts
09-Jan-19 19:29 34.078247 -118.500576 333 3982ft 157kts
09-Jan-19 19:30 34.115381 -118.524517 334 4206ft 145kts
09-Jan-19 19:31 34.150489 -118.540597 351 4966ft 136kts
09-Jan-19 19:32 34.188737 -118.549146 351 4982ft 150kts
09-Jan-19 19:33 34.229355 -118.555992 351 4981ft 150kts
09-Jan-19 19:34 34.270709 -118.562652 351 4985ft 150kts
09-Jan-19 19:35 34.312464 -118.566111 356 4992ft 150kts
09-Jan-19 19:36 34.354217 -118.568242 356 4999ft 150kts
09-Jan-19 19:37 34.395833 -118.570343 356 5006ft 150kts
09-Jan-19 19:38 34.437455 -118.572406 356 5017ft 149kts
09-Jan-19 19:39 34.460946 -118.540621 95 5003ft 157kts
09-Jan-19 19:40 34.427368 -118.511100 174 4806ft 161kts
09-Jan-19 19:41 34.383381 -118.506701 176 3831ft 147kts
09-Jan-19 19:42 34.348879 -118.503444 176 3807ft 115kts
09-Jan-19 19:43 34.314592 -118.500217 176 3368ft 132kts
09-Jan-19 19:44 34.278838 -118.496846 175 2473ft 125kts
09-Jan-19 19:45 34.245933 -118.493764 175 1637ft 113kts
09-Jan-19 19:46 34.215850 -118.491177 178 1526ft 125kts
09-Jan-19 19:47 34.178555 -118.490129 178 1852ft 127kts
09-Jan-19 19:48 34.144626 -118.486624 142 2641ft 123kts
09-Jan-19 19:49 34.115559 -118.463342 158 3459ft 130kts
09-Jan-19 19:50 34.080175 -118.455093 177 4262ft 131kts
09-Jan-19 19:51 34.044516 -118.455791 177 4971ft 130kts
09-Jan-19 19:52 34.011466 -118.471164 260 4986ft 155kts
09-Jan-19 19:53 34.018641 -118.523123 277 4991ft 158kts
09-Jan-19 19:54 34.025387 -118.575220 277 4991ft 158kts
09-Jan-19 19:55 34.032035 -118.627426 279 4998ft 157kts
09-Jan-19 19:56 34.057981 -118.661236 331 4629ft 152kts
09-Jan-19 19:57 34.092844 -118.685223 331 4036ft 139kts
09-Jan-19 19:58 34.126776 -118.708112 331 4006ft 139kts
09-Jan-19 19:59 34.161522 -118.726491 350 4009ft 138kts
09-Jan-19 20:00 34.195168 -118.719295 58 4010ft 140kts
09-Jan-19 20:01 34.202510 -118.675839 92 3831ft 137kts
09-Jan-19 20:02 34.201188 -118.632078 89 3408ft 128kts
09-Jan-19 20:03 34.200594 -118.589039 89 3215ft 125kts
09-Jan-19 20:04 34.206149 -118.549983 27 2685ft 114kts
09-Jan-19 20:05 34.236542 -118.549118 357 2545ft 110kts
09-Jan-19 20:06 34.253145 -118.522703 80 2200ft 102kts
09-Jan-19 20:07 34.247980 -118.492168 181 1202ft 99kts
09-Jan-19 20:08 34.221638 -118.490241 175 882ft 95kts
09-Jan-19 20:09 34.208647 -118.488911 92 806ft 2kts
09-Jan-19 20:10 34.208621 -118.487833 95 806ft 10kts
09-Jan-19 20:11 34.209296 -118.487402 359 806ft 0kts
09-Jan-19 20:12 34.209296 -118.487402 359 806ft 0kts

Navigation Log

Ident Type
Flight plan parsing failed, navigation log unavailable